Time;durP1;ratioP1;P1;durP2;ratioP2;P2;SDS_P1;SDS_P2;PMS_P1;PMS_P2;Temp;Humidity;BMP_temperature;BMP_pressure;BME280_temperature;BME280_humidity;BME280_pressure;Samples;Min_cycle;Max_cycle;Signal;HPM_P1;HPM_P2
2022/02/22 00:00:38;;;;;;;4.75;1.20;;;;;;;;;;5052809;28;20104;-61
2022/02/22 00:03:04;;;;;;;2.38;0.98;;;;;;;;;;5053124;28;20454;-60
2022/02/22 00:05:31;;;;;;;2.25;1.00;;;;;;;;;;5053114;28;20021;-60
2022/02/22 00:07:57;;;;;;;2.38;1.00;;;;;;;;;;5053025;28;20025;-60
2022/02/22 00:10:23;;;;;;;3.38;1.15;;;;;;;;;;5053233;28;20098;-60
2022/02/22 00:12:49;;;;;;;1.88;0.90;;;;;;;;;;5052915;28;20098;-60
2022/02/22 00:15:16;;;;;;;5.55;1.52;;;;;;;;;;5052794;28;20419;-60
2022/02/22 00:17:42;;;;;;;3.90;1.10;;;;;;;;;;5052973;28;20083;-60
2022/02/22 00:20:09;;;;;;;2.55;1.02;;;;;;;;;;5052807;28;20021;-60
2022/02/22 00:22:35;;;;;;;2.47;1.00;;;;;;;;;;5052624;28;20028;-60
2022/02/22 00:25:02;;;;;;;3.20;1.02;;;;;;;;;;5052462;28;20032;-60
2022/02/22 00:27:28;;;;;;;2.92;0.90;;;;;;;;;;5047854;28;20044;-59
2022/02/22 00:29:54;;;;;;;3.70;1.20;;;;;;;;;;5032223;28;20059;-60
2022/02/22 00:32:21;;;;;;;2.67;0.90;;;;;;;;;;5039239;28;20025;-60
2022/02/22 00:34:47;;;;;;;2.92;1.00;;;;;;;;;;5051790;28;20091;-60
2022/02/22 00:37:13;;;;;;;4.07;1.10;;;;;;;;;;5049334;28;20025;-61
2022/02/22 00:39:39;;;;;;;3.15;0.90;;;;;;;;;;5051063;28;20086;-61
2022/02/22 00:42:05;;;;;;;4.18;1.00;;;;;;;;;;5051608;28;20040;-61
2022/02/22 00:44:32;;;;;;;4.68;0.98;;;;;;;;;;5034425;28;20048;-60
2022/02/22 00:46:58;;;;;;;3.35;1.17;;;;;;;;;;5052612;28;20049;-60
2022/02/22 00:49:24;;;;;;;3.53;0.90;;;;;;;;;;5034447;28;20016;-60
2022/02/22 00:51:50;;;;;;;5.53;1.20;;;;;;;;;;5052163;28;20120;-61
2022/02/22 00:54:16;;;;;;;6.28;0.90;;;;;;;;;;5039971;28;20021;-60
2022/02/22 00:56:43;;;;;;;5.32;1.00;;;;;;;;;;5032467;28;20036;-60
2022/02/22 00:59:09;;;;;;;5.25;1.20;;;;;;;;;;5032264;28;20525;-60
2022/02/22 01:01:35;;;;;;;3.88;1.20;;;;;;;;;;5032363;28;20396;-60
2022/02/22 01:04:01;;;;;;;1.63;0.80;;;;;;;;;;5031239;28;20033;-60
2022/02/22 01:06:27;;;;;;;2.67;0.93;;;;;;;;;;5031935;28;20029;-60
2022/02/22 01:08:53;;;;;;;3.05;0.90;;;;;;;;;;5032164;28;20021;-60
2022/02/22 01:11:19;;;;;;;2.83;0.98;;;;;;;;;;5032204;28;20021;-60
2022/02/22 01:13:45;;;;;;;2.10;0.85;;;;;;;;;;5031968;28;20137;-60
2022/02/22 01:16:11;;;;;;;2.60;0.85;;;;;;;;;;5032111;28;20029;-60
2022/02/22 01:18:37;;;;;;;4.07;1.00;;;;;;;;;;5032040;28;20025;-60
2022/02/22 01:21:03;;;;;;;5.10;1.23;;;;;;;;;;5031667;28;20025;-60
2022/02/22 01:23:29;;;;;;;2.25;0.90;;;;;;;;;;5031994;28;20116;-60
2022/02/22 01:25:58;;;;;;;3.20;1.00;;;;;;;;;;5031888;28;20033;-60
2022/02/22 01:28:24;;;;;;;2.10;0.90;;;;;;;;;;5032091;28;20025;-60
2022/02/22 01:30:50;;;;;;;3.05;1.10;;;;;;;;;;5032154;28;20086;-60
2022/02/22 01:33:16;;;;;;;3.15;1.23;;;;;;;;;;5031717;28;20120;-60
2022/02/22 01:35:42;;;;;;;3.22;0.98;;;;;;;;;;5031735;28;20386;-60
2022/02/22 01:38:08;;;;;;;3.28;1.17;;;;;;;;;;5031886;28;20017;-60
2022/02/22 01:40:35;;;;;;;3.15;1.10;;;;;;;;;;5031783;28;20071;-60
2022/02/22 01:43:01;;;;;;;1.88;0.70;;;;;;;;;;5031760;28;20476;-60
2022/02/22 01:45:27;;;;;;;4.38;1.35;;;;;;;;;;5031901;28;20028;-60
2022/02/22 01:47:53;;;;;;;2.63;1.00;;;;;;;;;;5031885;28;20076;-61
2022/02/22 01:50:19;;;;;;;3.42;1.20;;;;;;;;;;5032081;28;20022;-60
2022/02/22 01:52:45;;;;;;;2.67;1.02;;;;;;;;;;5031913;28;20103;-61
2022/02/22 01:55:11;;;;;;;3.45;1.10;;;;;;;;;;5031692;28;20059;-60
2022/02/22 01:57:37;;;;;;;3.78;1.20;;;;;;;;;;5031838;28;20017;-60
2022/02/22 02:00:08;;;;;;;6.05;1.40;;;;;;;;;;5031798;28;20713;-61
2022/02/22 02:02:35;;;;;;;3.03;1.35;;;;;;;;;;5031716;28;20029;-60
2022/02/22 02:05:02;;;;;;;3.72;1.30;;;;;;;;;;5013754;28;20025;-60
2022/02/22 02:07:28;;;;;;;3.33;1.20;;;;;;;;;;5031369;28;20026;-61
2022/02/22 02:09:54;;;;;;;2.88;1.08;;;;;;;;;;5050726;28;20025;-61
2022/02/22 02:12:20;;;;;;;3.50;1.23;;;;;;;;;;5051290;28;20664;-61
2022/02/22 02:14:46;;;;;;;2.92;1.20;;;;;;;;;;5053365;28;20683;-61
2022/02/22 02:17:12;;;;;;;3.92;1.20;;;;;;;;;;5055277;28;20033;-61
2022/02/22 02:19:40;;;;;;;2.45;1.20;;;;;;;;;;5055279;28;20021;-61
2022/02/22 02:22:06;;;;;;;4.82;1.60;;;;;;;;;;5055206;28;20025;-61
2022/02/22 02:24:32;;;;;;;4.45;1.10;;;;;;;;;;5055387;28;20071;-61
2022/02/22 02:26:58;;;;;;;4.25;1.48;;;;;;;;;;5055197;28;20032;-61
2022/02/22 02:29:26;;;;;;;3.00;1.30;;;;;;;;;;5037133;28;20412;-60
2022/02/22 02:31:52;;;;;;;2.60;1.20;;;;;;;;;;5055149;28;20070;-61
2022/02/22 02:34:19;;;;;;;2.80;1.20;;;;;;;;;;5054972;28;20029;-60
2022/02/22 02:36:45;;;;;;;3.15;1.33;;;;;;;;;;5055022;28;20028;-60
2022/02/22 02:39:12;;;;;;;5.85;1.83;;;;;;;;;;5055342;28;20126;-60
2022/02/22 02:41:39;;;;;;;4.28;1.60;;;;;;;;;;5055229;28;20037;-60
2022/02/22 02:44:07;;;;;;;3.78;1.50;;;;;;;;;;5054567;28;20527;-60
2022/02/22 02:46:33;;;;;;;4.20;1.63;;;;;;;;;;5054812;28;20036;-60
2022/02/22 02:49:00;;;;;;;2.67;1.20;;;;;;;;;;5054725;28;20606;-60
2022/02/22 02:51:26;;;;;;;3.60;1.20;;;;;;;;;;5054660;28;20021;-60
2022/02/22 02:53:53;;;;;;;4.22;1.67;;;;;;;;;;5045585;28;20061;-61
2022/02/22 02:56:25;;;;;;;4.97;1.80;;;;;;;;;;5034814;28;20075;-60
2022/02/22 02:58:52;;;;;;;4.88;1.42;;;;;;;;;;5034675;28;20468;-60
2022/02/22 03:01:19;;;;;;;5.60;1.65;;;;;;;;;;5034515;28;20089;-61
2022/02/22 03:03:45;;;;;;;2.95;1.10;;;;;;;;;;5034649;28;20045;-60
2022/02/22 03:06:11;;;;;;;4.82;1.30;;;;;;;;;;5033272;28;20495;-60
2022/02/22 03:08:37;;;;;;;3.78;1.20;;;;;;;;;;5034451;28;20523;-60
2022/02/22 03:11:03;;;;;;;3.15;1.27;;;;;;;;;;5034368;28;20052;-60
2022/02/22 03:13:29;;;;;;;3.17;1.20;;;;;;;;;;5034218;28;20028;-60
2022/02/22 03:15:56;;;;;;;4.93;1.70;;;;;;;;;;5034448;28;20033;-60
2022/02/22 03:18:22;;;;;;;3.92;1.40;;;;;;;;;;5034348;28;20083;-60
2022/02/22 03:20:48;;;;;;;4.30;1.30;;;;;;;;;;5034235;28;20389;-61
2022/02/22 03:23:14;;;;;;;3.72;1.55;;;;;;;;;;5034114;28;20029;-60
2022/02/22 03:25:40;;;;;;;3.15;1.40;;;;;;;;;;5033397;28;20088;-61
2022/02/22 03:28:08;;;;;;;2.30;0.93;;;;;;;;;;5033928;28;20057;-60
2022/02/22 03:30:34;;;;;;;3.55;1.15;;;;;;;;;;5034118;28;20385;-60
2022/02/22 03:33:00;;;;;;;3.63;1.48;;;;;;;;;;5033826;28;20438;-61
2022/02/22 03:35:27;;;;;;;4.20;1.52;;;;;;;;;;5034096;28;20021;-61
2022/02/22 03:37:53;;;;;;;4.20;1.30;;;;;;;;;;5034027;28;20028;-60
2022/02/22 03:40:19;;;;;;;4.22;1.27;;;;;;;;;;5033746;28;20033;-60
2022/02/22 03:42:45;;;;;;;3.53;1.27;;;;;;;;;;5033818;28;20040;-60
2022/02/22 03:45:12;;;;;;;3.28;1.20;;;;;;;;;;5033990;28;20024;-60
2022/02/22 03:47:38;;;;;;;4.70;1.33;;;;;;;;;;5033901;28;20476;-60
2022/02/22 03:50:05;;;;;;;3.65;1.45;;;;;;;;;;5032474;28;20498;-60
2022/02/22 03:52:31;;;;;;;3.38;1.42;;;;;;;;;;5033838;28;20026;-60
2022/02/22 03:54:57;;;;;;;4.22;1.40;;;;;;;;;;5033734;28;20029;-61
2022/02/22 03:57:23;;;;;;;3.30;1.25;;;;;;;;;;5033635;28;20030;-60
2022/02/22 03:59:49;;;;;;;5.22;1.40;;;;;;;;;;5033640;28;20060;-61
2022/02/22 04:02:15;;;;;;;2.65;1.02;;;;;;;;;;5033364;28;20036;-60
2022/02/22 04:04:42;;;;;;;3.67;1.52;;;;;;;;;;5033498;28;20112;-61
2022/02/22 04:07:08;;;;;;;4.05;1.45;;;;;;;;;;5033512;28;20017;-61
2022/02/22 04:09:34;;;;;;;3.17;1.10;;;;;;;;;;5033320;28;20469;-61
2022/02/22 04:12:00;;;;;;;3.67;1.30;;;;;;;;;;5033295;28;20033;-61
2022/02/22 04:14:26;;;;;;;2.97;1.13;;;;;;;;;;5032894;28;20045;-60
2022/02/22 04:16:52;;;;;;;2.25;0.70;;;;;;;;;;5033103;28;20109;-60
2022/02/22 04:19:18;;;;;;;2.88;1.08;;;;;;;;;;5033177;28;20026;-60
2022/02/22 04:21:44;;;;;;;3.58;1.05;;;;;;;;;;5033155;28;20096;-60
2022/02/22 04:24:10;;;;;;;2.13;0.85;;;;;;;;;;5033054;28;20040;-61
2022/02/22 04:26:36;;;;;;;2.53;0.90;;;;;;;;;;5033095;28;20108;-60
2022/02/22 04:29:02;;;;;;;2.78;1.20;;;;;;;;;;5032754;28;20030;-61
2022/02/22 04:31:28;;;;;;;3.75;1.33;;;;;;;;;;5031422;28;20135;-60
2022/02/22 04:33:55;;;;;;;5.00;1.20;;;;;;;;;;5032943;28;20032;-60
2022/02/22 04:36:21;;;;;;;2.33;1.00;;;;;;;;;;5033026;28;20056;-61
2022/02/22 04:38:47;;;;;;;2.28;0.93;;;;;;;;;;5032744;28;20060;-61
2022/02/22 04:41:13;;;;;;;3.15;1.00;;;;;;;;;;5032884;28;20029;-61
2022/02/22 04:43:39;;;;;;;2.25;0.90;;;;;;;;;;5032724;28;20090;-61
2022/02/22 04:46:05;;;;;;;2.17;0.80;;;;;;;;;;5032896;28;20025;-61
2022/02/22 04:48:31;;;;;;;1.63;0.77;;;;;;;;;;5032573;28;20022;-61
2022/02/22 04:50:57;;;;;;;2.72;1.05;;;;;;;;;;5031336;28;20017;-61
2022/02/22 04:53:23;;;;;;;2.17;0.80;;;;;;;;;;5033684;28;20033;-61
2022/02/22 04:55:49;;;;;;;2.88;0.90;;;;;;;;;;5052357;28;20045;-61
2022/02/22 04:58:15;;;;;;;1.60;0.82;;;;;;;;;;5052498;28;20025;-61
2022/02/22 05:00:41;;;;;;;1.83;0.75;;;;;;;;;;5052268;28;20024;-61
2022/02/22 05:03:08;;;;;;;1.90;0.88;;;;;;;;;;5052143;28;20082;-61
2022/02/22 05:05:34;;;;;;;1.70;0.70;;;;;;;;;;5052434;28;20047;-60
2022/02/22 05:08:00;;;;;;;2.30;1.10;;;;;;;;;;5052177;28;20029;-60
2022/02/22 05:10:26;;;;;;;1.83;0.75;;;;;;;;;;5052369;28;20028;-60
2022/02/22 05:12:52;;;;;;;2.53;0.70;;;;;;;;;;5052471;28;20029;-61
2022/02/22 05:15:18;;;;;;;2.33;0.98;;;;;;;;;;5052078;28;20492;-61
2022/02/22 05:17:44;;;;;;;1.65;0.68;;;;;;;;;;5052408;28;20356;-60
2022/02/22 05:20:10;;;;;;;1.80;0.68;;;;;;;;;;5052150;28;20078;-60
2022/02/22 05:22:40;;;;;;;1.10;0.63;;;;;;;;;;5051985;28;20180;-61
2022/02/22 05:25:06;;;;;;;2.05;0.80;;;;;;;;;;5052371;28;20101;-60
2022/02/22 05:27:32;;;;;;;2.05;0.85;;;;;;;;;;5052121;28;20017;-61
2022/02/22 05:29:58;;;;;;;1.52;0.60;;;;;;;;;;5052145;28;20079;-61
2022/02/22 05:32:24;;;;;;;2.67;0.60;;;;;;;;;;5052116;28;20017;-61
2022/02/22 05:34:50;;;;;;;0.70;0.40;;;;;;;;;;5051946;28;20045;-60
2022/02/22 05:37:16;;;;;;;1.02;0.57;;;;;;;;;;5051981;28;20037;-61
2022/02/22 05:39:43;;;;;;;2.38;0.60;;;;;;;;;;5051851;28;20036;-60
2022/02/22 05:42:09;;;;;;;1.55;0.68;;;;;;;;;;5051609;28;20052;-61
2022/02/22 05:44:35;;;;;;;2.22;0.75;;;;;;;;;;5051858;28;20246;-60
2022/02/22 05:47:01;;;;;;;1.20;0.60;;;;;;;;;;5052003;28;20025;-60
2022/02/22 05:49:27;;;;;;;1.00;0.50;;;;;;;;;;5053496;28;20021;-60
2022/02/22 05:51:54;;;;;;;1.15;0.60;;;;;;;;;;5056010;28;20017;-60
2022/02/22 05:54:20;;;;;;;1.38;0.60;;;;;;;;;;5055803;28;20033;-61
2022/02/22 05:56:46;;;;;;;2.47;0.70;;;;;;;;;;5055839;28;20028;-60
2022/02/22 05:59:14;;;;;;;2.05;0.43;;;;;;;;;;5055797;28;20472;-60
2022/02/22 06:01:42;;;;;;;1.45;0.52;;;;;;;;;;5055816;28;20021;-60
2022/02/22 06:04:09;;;;;;;2.42;0.60;;;;;;;;;;5055338;28;20029;-60
2022/02/22 06:06:35;;;;;;;2.60;0.65;;;;;;;;;;5055470;28;20032;-60
2022/02/22 06:09:01;;;;;;;1.63;0.73;;;;;;;;;;5055710;28;20064;-60
2022/02/22 06:11:27;;;;;;;1.42;0.47;;;;;;;;;;5055400;28;20082;-60
2022/02/22 06:13:53;;;;;;;0.82;0.45;;;;;;;;;;5055128;28;20033;-61
2022/02/22 06:16:19;;;;;;;2.03;0.60;;;;;;;;;;5055555;28;20029;-61
2022/02/22 06:18:45;;;;;;;0.55;0.32;;;;;;;;;;5055163;28;20488;-61
2022/02/22 06:21:11;;;;;;;2.13;0.52;;;;;;;;;;5055509;28;20033;-60
2022/02/22 06:23:37;;;;;;;1.17;0.47;;;;;;;;;;5054963;28;20037;-61
2022/02/22 06:26:04;;;;;;;1.33;0.70;;;;;;;;;;5037474;28;20408;-61
2022/02/22 06:28:31;;;;;;;0.98;0.43;;;;;;;;;;5055294;28;20021;-61
2022/02/22 06:30:57;;;;;;;1.42;0.50;;;;;;;;;;5055069;28;20124;-61
2022/02/22 06:33:23;;;;;;;1.60;0.57;;;;;;;;;;5054962;28;20017;-61
2022/02/22 06:35:49;;;;;;;0.88;0.40;;;;;;;;;;5055100;28;20049;-61
2022/02/22 06:38:15;;;;;;;1.25;0.47;;;;;;;;;;5037109;28;20024;-61
2022/02/22 06:40:41;;;;;;;2.42;0.63;;;;;;;;;;5054671;28;20139;-61
2022/02/22 06:43:07;;;;;;;1.50;0.50;;;;;;;;;;5054500;28;20122;-61
2022/02/22 06:45:34;;;;;;;0.95;0.50;;;;;;;;;;5054528;28;20407;-61
2022/02/22 06:48:00;;;;;;;0.95;0.50;;;;;;;;;;5054641;28;20158;-61
2022/02/22 06:50:26;;;;;;;1.38;0.50;;;;;;;;;;5054898;28;20024;-61
2022/02/22 06:52:52;;;;;;;1.38;0.55;;;;;;;;;;5054306;28;20120;-61
2022/02/22 06:55:18;;;;;;;4.90;0.60;;;;;;;;;;5043444;28;20045;-62
2022/02/22 06:58:11;;;;;;;1.90;0.70;;;;;;;;;;5034756;28;20018;-61
2022/02/22 07:00:38;;;;;;;2.35;0.50;;;;;;;;;;5030614;28;20060;-61
2022/02/22 07:03:05;;;;;;;4.18;0.50;;;;;;;;;;5016699;28;20040;-61
2022/02/22 07:05:31;;;;;;;2.45;0.50;;;;;;;;;;5034542;28;20037;-61
2022/02/22 07:07:58;;;;;;;2.53;0.60;;;;;;;;;;5034366;28;20029;-61
2022/02/22 07:10:28;;;;;;;1.88;0.60;;;;;;;;;;5034547;28;20018;-61
2022/02/22 07:12:54;;;;;;;1.48;0.47;;;;;;;;;;5016594;28;20029;-61
2022/02/22 07:15:20;;;;;;;1.67;0.50;;;;;;;;;;5034353;28;20038;-61
2022/02/22 07:17:47;;;;;;;2.25;0.60;;;;;;;;;;5034455;28;20029;-61
2022/02/22 07:20:14;;;;;;;1.73;0.60;;;;;;;;;;5034091;28;20245;-60
2022/02/22 07:22:40;;;;;;;3.45;0.77;;;;;;;;;;5034151;28;20025;-61
2022/02/22 07:25:08;;;;;;;0.70;0.45;;;;;;;;;;5033675;28;20025;-61
2022/02/22 07:27:34;;;;;;;2.00;0.60;;;;;;;;;;5015559;28;20021;-61
2022/02/22 07:30:00;;;;;;;3.00;0.52;;;;;;;;;;5033595;28;20021;-61
2022/02/22 07:32:26;;;;;;;15.95;0.70;;;;;;;;;;5033595;28;20021;-61
2022/02/22 07:34:52;;;;;;;7.10;0.70;;;;;;;;;;5051446;28;20518;-61
2022/02/22 07:37:18;;;;;;;10.82;0.73;;;;;;;;;;5053323;28;20499;-60
2022/02/22 07:39:44;;;;;;;1.50;0.40;;;;;;;;;;5053354;28;20206;-61
2022/02/22 07:42:10;;;;;;;4.57;0.52;;;;;;;;;;5052743;28;20025;-60
2022/02/22 07:44:36;;;;;;;2.05;0.70;;;;;;;;;;5053171;28;20033;-60
2022/02/22 07:47:02;;;;;;;1.23;0.40;;;;;;;;;;5035490;28;20017;-60
2022/02/22 07:49:28;;;;;;;1.05;0.50;;;;;;;;;;5053253;28;20017;-60
2022/02/22 07:51:54;;;;;;;1.83;0.68;;;;;;;;;;5052321;28;20055;-60
2022/02/22 07:54:20;;;;;;;2.53;0.82;;;;;;;;;;5038655;28;20430;-60
2022/02/22 07:56:47;;;;;;;3.47;0.77;;;;;;;;;;5051757;28;20414;-60
2022/02/22 07:59:13;;;;;;;1.65;0.60;;;;;;;;;;5042215;28;20429;-60
2022/02/22 08:01:39;;;;;;;2.00;0.50;;;;;;;;;;5031824;28;20032;-60
2022/02/22 08:04:05;;;;;;;2.13;0.50;;;;;;;;;;5032399;28;20445;-60
2022/02/22 08:06:31;;;;;;;4.70;0.88;;;;;;;;;;5032540;28;20546;-60
2022/02/22 08:08:57;;;;;;;0.70;0.30;;;;;;;;;;5032621;28;20022;-60
2022/02/22 08:11:25;;;;;;;3.30;0.70;;;;;;;;;;5041844;28;20059;-60
2022/02/22 08:13:52;;;;;;;2.00;0.60;;;;;;;;;;5052281;28;20443;-61
2022/02/22 08:16:18;;;;;;;3.65;0.52;;;;;;;;;;5052882;28;20377;-61
2022/02/22 08:18:44;;;;;;;1.88;0.73;;;;;;;;;;5052744;28;20076;-60
2022/02/22 08:21:10;;;;;;;2.35;0.68;;;;;;;;;;5052510;28;20021;-60
2022/02/22 08:23:37;;;;;;;4.95;0.70;;;;;;;;;;5052301;28;20041;-61
2022/02/22 08:26:06;;;;;;;3.00;0.50;;;;;;;;;;5052220;28;20087;-61
2022/02/22 08:28:32;;;;;;;3.20;0.70;;;;;;;;;;5052370;28;20022;-60
2022/02/22 08:30:59;;;;;;;3.45;0.90;;;;;;;;;;5050698;28;20444;-61
2022/02/22 08:33:25;;;;;;;37.00;1.58;;;;;;;;;;5029276;28;20483;-61
2022/02/22 08:35:51;;;;;;;6.05;0.80;;;;;;;;;;5032806;28;20021;-61
2022/02/22 08:38:17;;;;;;;3.58;0.60;;;;;;;;;;5048678;28;20394;-61
2022/02/22 08:40:43;;;;;;;4.32;0.40;;;;;;;;;;5052145;28;20092;-61
2022/02/22 08:43:10;;;;;;;5.50;0.57;;;;;;;;;;5034150;28;20060;-61
2022/02/22 08:45:36;;;;;;;3.30;0.60;;;;;;;;;;5052256;28;20036;-62
2022/02/22 08:48:02;;;;;;;10.18;0.85;;;;;;;;;;5052232;28;20074;-61
2022/02/22 08:50:28;;;;;;;1.92;0.60;;;;;;;;;;5035622;28;20067;-61
2022/02/22 08:52:54;;;;;;;4.30;0.70;;;;;;;;;;5031903;28;20021;-61
2022/02/22 08:55:20;;;;;;;3.45;0.60;;;;;;;;;;5044084;28;20040;-61
2022/02/22 08:57:46;;;;;;;2.58;0.70;;;;;;;;;;5051999;28;20028;-61
2022/02/22 09:00:14;;;;;;;2.17;0.47;;;;;;;;;;5034008;28;20375;-60
2022/02/22 09:02:41;;;;;;;4.95;0.73;;;;;;;;;;5050439;28;20116;-61
2022/02/22 09:05:07;;;;;;;4.53;0.50;;;;;;;;;;5034343;28;20372;-60
2022/02/22 09:07:33;;;;;;;4.97;0.55;;;;;;;;;;5031643;28;20121;-61
2022/02/22 09:09:59;;;;;;;1.90;0.50;;;;;;;;;;5031805;28;20025;-61
2022/02/22 09:12:27;;;;;;;2.50;0.55;;;;;;;;;;5031674;28;20534;-61
2022/02/22 09:14:53;;;;;;;1.05;0.50;;;;;;;;;;5031538;28;20096;-61
2022/02/22 09:17:19;;;;;;;5.80;0.60;;;;;;;;;;5031709;28;20472;-61
2022/02/22 09:19:46;;;;;;;1.30;0.43;;;;;;;;;;5034474;28;20083;-61
2022/02/22 09:22:12;;;;;;;2.72;0.60;;;;;;;;;;5031965;28;20380;-62
2022/02/22 09:24:38;;;;;;;1.13;0.45;;;;;;;;;;5030651;28;20120;-62
2022/02/22 09:27:04;;;;;;;2.47;0.60;;;;;;;;;;5047343;28;20112;-61
2022/02/22 09:29:31;;;;;;;0.80;0.43;;;;;;;;;;5051631;28;20545;-62
2022/02/22 09:31:57;;;;;;;2.30;0.73;;;;;;;;;;5051438;28;20021;-62
2022/02/22 09:34:23;;;;;;;1.75;0.43;;;;;;;;;;5051454;28;20021;-61
2022/02/22 09:36:49;;;;;;;1.65;0.50;;;;;;;;;;5047238;28;20037;-61
2022/02/22 09:39:15;;;;;;;0.70;0.40;;;;;;;;;;5031553;28;20136;-62
2022/02/22 09:41:41;;;;;;;2.63;0.57;;;;;;;;;;5031552;28;20022;-62
2022/02/22 09:44:07;;;;;;;2.80;0.50;;;;;;;;;;5031473;28;20069;-61
2022/02/22 09:46:35;;;;;;;2.40;0.40;;;;;;;;;;5031156;28;20030;-62
2022/02/22 09:49:01;;;;;;;2.35;0.60;;;;;;;;;;5031672;28;20059;-60
2022/02/22 09:51:27;;;;;;;2.80;0.93;;;;;;;;;;5031342;28;20032;-60
2022/02/22 09:53:53;;;;;;;4.05;0.85;;;;;;;;;;5036672;28;20036;-61
2022/02/22 09:56:25;;;;;;;1.83;0.52;;;;;;;;;;5045741;28;20135;-61
2022/02/22 09:58:51;;;;;;;2.03;0.60;;;;;;;;;;5051448;28;20036;-61
2022/02/22 10:01:17;;;;;;;3.65;0.52;;;;;;;;;;5060338;28;20017;-62
2022/02/22 10:03:43;;;;;;;2.80;0.50;;;;;;;;;;5068032;28;20076;-61
2022/02/22 10:06:10;;;;;;;2.40;0.65;;;;;;;;;;5041068;28;20083;-61
2022/02/22 10:08:37;;;;;;;3.35;0.60;;;;;;;;;;5040828;28;20079;-61
2022/02/22 10:11:07;;;;;;;2.40;0.60;;;;;;;;;;5050489;28;20033;-61
2022/02/22 10:13:34;;;;;;;2.33;0.50;;;;;;;;;;5050302;28;20068;-62
2022/02/22 10:16:05;;;;;;;1.40;0.40;;;;;;;;;;5035631;28;20046;-61
2022/02/22 10:18:31;;;;;;;1.25;0.57;;;;;;;;;;5031055;28;20033;-61
2022/02/22 10:20:57;;;;;;;1.05;0.40;;;;;;;;;;5031179;28;20025;-62
2022/02/22 10:23:26;;;;;;;2.03;0.63;;;;;;;;;;5030903;28;20069;-61
2022/02/22 10:25:55;;;;;;;2.25;0.80;;;;;;;;;;5037763;28;20538;-61
2022/02/22 10:28:21;;;;;;;3.40;0.63;;;;;;;;;;5048613;28;20413;-61
2022/02/22 10:30:50;;;;;;;1.23;0.50;;;;;;;;;;5046551;28;20414;-61
2022/02/22 10:33:20;;;;;;;1.23;0.57;;;;;;;;;;5050783;28;20048;-62
2022/02/22 10:35:51;;;;;;;2.45;0.65;;;;;;;;;;5052631;28;20017;-61
2022/02/22 10:38:20;;;;;;;1.65;0.57;;;;;;;;;;5054513;28;20742;-61
2022/02/22 10:41:06;;;;;;;2.42;0.63;;;;;;;;;;5054778;28;20029;-61
2022/02/22 10:43:34;;;;;;;1.80;0.50;;;;;;;;;;5054410;28;20033;-61
2022/02/22 10:46:01;;;;;;;2.78;0.55;;;;;;;;;;5036413;28;20021;-61
2022/02/22 10:48:41;;;;;;;1.15;0.50;;;;;;;;;;5054318;28;20068;-61
2022/02/22 10:51:10;;;;;;;2.80;0.52;;;;;;;;;;5053975;28;20017;-61
2022/02/22 10:53:38;;;;;;;1.77;0.60;;;;;;;;;;5053868;28;20112;-62
2022/02/22 10:56:05;;;;;;;1.23;0.52;;;;;;;;;;5054034;28;20025;-61
2022/02/22 10:58:31;;;;;;;0.93;0.40;;;;;;;;;;5047887;28;20036;-61
2022/02/22 11:00:58;;;;;;;3.05;0.50;;;;;;;;;;5042279;28;20358;-60
2022/02/22 11:03:24;;;;;;;3.13;0.73;;;;;;;;;;5053632;28;20148;-60
2022/02/22 11:05:50;;;;;;;1.38;0.50;;;;;;;;;;5040679;28;20017;-60
2022/02/22 11:08:26;;;;;;;2.72;0.50;;;;;;;;;;5033434;28;20096;-60
2022/02/22 11:10:57;;;;;;;6.20;0.85;;;;;;;;;;5033593;28;20654;-60
2022/02/22 11:13:27;;;;;;;4.78;0.70;;;;;;;;;;5050534;28;20025;-59
2022/02/22 11:15:53;;;;;;;1.75;0.68;;;;;;;;;;5052672;28;20040;-60
2022/02/22 11:18:20;;;;;;;1.67;0.52;;;;;;;;;;5053006;28;20021;-60
2022/02/22 11:20:47;;;;;;;1.23;0.60;;;;;;;;;;5053153;28;20371;-60
2022/02/22 11:23:23;;;;;;;3.80;0.45;;;;;;;;;;5035400;28;20036;-59
2022/02/22 11:25:51;;;;;;;0.98;0.50;;;;;;;;;;5052909;28;20028;-59
2022/02/22 11:28:18;;;;;;;2.63;0.60;;;;;;;;;;5052946;28;20545;-60
2022/02/22 11:30:44;;;;;;;1.80;0.68;;;;;;;;;;5053146;28;20067;-62
2022/02/22 11:33:15;;;;;;;2.40;0.68;;;;;;;;;;5052986;28;20021;-60
2022/02/22 11:35:46;;;;;;;2.22;0.65;;;;;;;;;;5052784;28;20096;-60
2022/02/22 11:38:13;;;;;;;2.33;0.80;;;;;;;;;;5052769;28;20028;-60
2022/02/22 11:40:39;;;;;;;1.38;0.40;;;;;;;;;;5052608;28;20027;-60
2022/02/22 11:43:13;;;;;;;1.63;0.60;;;;;;;;;;5052744;28;20041;-60
2022/02/22 11:45:39;;;;;;;1.55;0.63;;;;;;;;;;5052930;28;20064;-60
2022/02/22 11:48:22;;;;;;;1.13;0.40;;;;;;;;;;5051714;28;20395;-60
2022/02/22 11:50:48;;;;;;;;;;;;;;;;;;5053090;28;20021;-60
2022/02/22 11:53:19;;;;;;;2.35;0.60;;;;;;;;;;5052611;28;19951;-61
2022/02/22 11:55:46;;;;;;;2.53;0.50;;;;;;;;;;5052736;28;20056;-61
2022/02/22 11:58:22;;;;;;;1.27;0.60;;;;;;;;;;5052460;28;20044;-61
2022/02/22 12:00:50;;;;;;;3.95;0.73;;;;;;;;;;5052408;28;20427;-60
2022/02/22 12:03:18;;;;;;;1.40;0.68;;;;;;;;;;5034418;28;20029;-61
2022/02/22 12:05:45;;;;;;;1.88;0.50;;;;;;;;;;5053054;28;20028;-61
2022/02/22 12:08:18;;;;;;;5.47;0.60;;;;;;;;;;5047044;28;20036;-62
2022/02/22 12:10:54;;;;;;;2.80;0.60;;;;;;;;;;5033206;28;20105;-61
2022/02/22 12:13:22;;;;;;;1.30;0.47;;;;;;;;;;5033148;28;20125;-61
2022/02/22 12:15:48;;;;;;;7.22;0.68;;;;;;;;;;5050249;28;20103;-62
2022/02/22 12:18:15;;;;;;;1.80;0.63;;;;;;;;;;5051824;28;20028;-62
2022/02/22 12:20:42;;;;;;;4.80;0.80;;;;;;;;;;5052702;28;20052;-61
2022/02/22 12:23:14;;;;;;;7.57;0.80;;;;;;;;;;5034879;28;20060;-62
2022/02/22 12:25:40;;;;;;;2.50;0.55;;;;;;;;;;5052870;28;20491;-62
2022/02/22 12:28:06;;;;;;;3.08;0.70;;;;;;;;;;5052995;28;20029;-62
2022/02/22 12:30:36;;;;;;;6.50;0.95;;;;;;;;;;5052923;28;20021;-62
2022/02/22 12:33:03;;;;;;;2.05;0.80;;;;;;;;;;5052684;28;20092;-62
2022/02/22 12:35:34;;;;;;;5.45;0.52;;;;;;;;;;5052718;28;20024;-62
2022/02/22 12:38:00;;;;;;;2.97;0.70;;;;;;;;;;5052524;28;20361;-62
2022/02/22 12:40:31;;;;;;;1.80;0.70;;;;;;;;;;5034687;28;20032;-62
2022/02/22 12:43:04;;;;;;;1.98;0.70;;;;;;;;;;5052477;28;20044;-62
2022/02/22 12:45:35;;;;;;;5.72;0.70;;;;;;;;;;5052473;28;20029;-62
2022/02/22 12:48:01;;;;;;;4.95;0.80;;;;;;;;;;5052618;28;20021;-62
2022/02/22 12:50:27;;;;;;;2.58;0.75;;;;;;;;;;5052569;28;20083;-62
2022/02/22 12:52:56;;;;;;;1.15;0.38;;;;;;;;;;5052337;28;20021;-62
2022/02/22 12:55:22;;;;;;;2.03;0.80;;;;;;;;;;5034543;28;20042;-62
2022/02/22 12:57:48;;;;;;;1.60;0.47;;;;;;;;;;5052135;28;20017;-62
2022/02/22 13:00:17;;;;;;;1.50;0.68;;;;;;;;;;5051664;28;20035;-62
2022/02/22 13:02:43;;;;;;;2.63;0.68;;;;;;;;;;5052311;28;20025;-62
2022/02/22 13:05:11;;;;;;;1.73;0.60;;;;;;;;;;5034271;28;20472;-62
2022/02/22 13:07:37;;;;;;;1.00;0.50;;;;;;;;;;5052288;28;20056;-62
2022/02/22 13:10:07;;;;;;;1.27;0.40;;;;;;;;;;5052339;28;20021;-62
2022/02/22 13:12:34;;;;;;;1.65;0.50;;;;;;;;;;5052129;28;20108;-62
2022/02/22 13:15:00;;;;;;;0.90;0.40;;;;;;;;;;5052129;28;20017;-62
2022/02/22 13:17:28;;;;;;;1.50;0.52;;;;;;;;;;5051756;28;20044;-61
2022/02/22 13:19:55;;;;;;;3.50;0.40;;;;;;;;;;5052089;28;20021;-61
2022/02/22 13:22:27;;;;;;;1.27;0.50;;;;;;;;;;5051853;28;20078;-61
2022/02/22 13:24:56;;;;;;;1.08;0.43;;;;;;;;;;5051982;28;20029;-61
2022/02/22 13:27:28;;;;;;;1.00;0.40;;;;;;;;;;5051912;28;20491;-60
2022/02/22 13:29:58;;;;;;;1.13;0.55;;;;;;;;;;5051858;28;20108;-61
2022/02/22 13:32:28;;;;;;;1.73;0.52;;;;;;;;;;5051888;28;20071;-61
2022/02/22 13:34:55;;;;;;;1.17;0.52;;;;;;;;;;5051703;28;20032;-61
2022/02/22 13:37:25;;;;;;;1.25;0.50;;;;;;;;;;5051828;28;20021;-61
2022/02/22 13:40:01;;;;;;;1.63;0.45;;;;;;;;;;5051922;28;20078;-61
2022/02/22 13:42:27;;;;;;;1.98;0.50;;;;;;;;;;5051570;28;20452;-61
2022/02/22 13:44:57;;;;;;;1.52;0.63;;;;;;;;;;5051650;28;20029;-61
2022/02/22 13:47:34;;;;;;;1.08;0.40;;;;;;;;;;5051805;28;20021;-61
2022/02/22 13:50:12;;;;;;;2.00;0.60;;;;;;;;;;5051714;28;20053;-61
2022/02/22 13:52:38;;;;;;;1.50;0.57;;;;;;;;;;5051419;28;20060;-61
2022/02/22 13:55:07;;;;;;;1.73;0.47;;;;;;;;;;5051511;28;20026;-61
2022/02/22 13:57:39;;;;;;;2.22;0.57;;;;;;;;;;5028743;28;20025;-61
2022/02/22 14:00:06;;;;;;;0.95;0.70;;;;;;;;;;5046496;28;20108;-61
2022/02/22 14:02:37;;;;;;;2.40;0.60;;;;;;;;;;5048586;28;20056;-61
2022/02/22 14:05:04;;;;;;;1.42;0.50;;;;;;;;;;5031335;28;20029;-61
2022/02/22 14:07:30;;;;;;;2.47;0.70;;;;;;;;;;5030965;28;20018;-62
2022/02/22 14:09:56;;;;;;;2.75;0.60;;;;;;;;;;5031919;28;20026;-62
2022/02/22 14:12:22;;;;;;;2.53;0.73;;;;;;;;;;5035259;28;20374;-61
2022/02/22 14:14:48;;;;;;;4.03;0.60;;;;;;;;;;5053515;28;20037;-63
2022/02/22 14:17:14;;;;;;;4.18;0.70;;;;;;;;;;5054362;28;20200;-62
2022/02/22 14:19:40;;;;;;;1.25;0.50;;;;;;;;;;5055010;28;20025;-61
2022/02/22 14:22:06;;;;;;;1.08;0.55;;;;;;;;;;5054793;28;20017;-61
2022/02/22 14:24:32;;;;;;;2.88;0.55;;;;;;;;;;5054748;28;20037;-61
2022/02/22 14:26:59;;;;;;;1.58;0.60;;;;;;;;;;5054939;28;20103;-61
2022/02/22 14:29:25;;;;;;;1.83;0.55;;;;;;;;;;5055050;28;20027;-61
2022/02/22 14:31:51;;;;;;;5.70;0.85;;;;;;;;;;5054561;28;20029;-62
2022/02/22 14:34:17;;;;;;;1.13;0.47;;;;;;;;;;5054624;28;20079;-60
2022/02/22 14:36:44;;;;;;;1.98;0.60;;;;;;;;;;5054449;28;20033;-61
2022/02/22 14:39:10;;;;;;;1.80;0.45;;;;;;;;;;5054705;28;20040;-62
2022/02/22 14:41:37;;;;;;;3.70;0.77;;;;;;;;;;5054541;28;20107;-63